createdAt,value
2023-05-07T00:00:54.252Z,14.80
2023-05-07T00:01:53.766Z,14.87
2023-05-07T00:02:54.431Z,14.82
2023-05-07T00:03:54.073Z,14.82
2023-05-07T00:04:54.396Z,14.87
2023-05-07T00:06:54.312Z,14.87
2023-05-07T00:09:53.892Z,14.95
2023-05-07T00:11:53.853Z,14.90
2023-05-07T00:12:54.102Z,14.94
2023-05-07T00:17:54.044Z,14.85
2023-05-07T00:18:54.067Z,14.83
2023-05-07T00:19:54.062Z,14.87
2023-05-07T00:20:54.180Z,14.90
2023-05-07T00:21:54.121Z,14.77
2023-05-07T00:22:54.151Z,14.85
2023-05-07T00:23:54.180Z,14.80
2023-05-07T00:24:54.206Z,14.89
2023-05-07T00:25:54.328Z,14.86
2023-05-07T00:26:54.266Z,14.80
2023-05-07T00:27:54.293Z,14.89
2023-05-07T00:28:54.324Z,14.85
2023-05-07T00:29:54.354Z,14.80
2023-05-07T00:30:54.381Z,14.79
2023-05-07T00:31:54.459Z,14.89
2023-05-07T00:32:54.469Z,14.77
2023-05-07T00:33:54.466Z,14.79
2023-05-07T00:34:54.517Z,14.80
2023-05-07T00:35:54.523Z,14.82
2023-05-07T00:36:54.561Z,14.80
2023-05-07T00:37:54.578Z,14.80
2023-05-07T00:38:54.611Z,14.77
2023-05-07T00:39:54.645Z,14.79
2023-05-07T00:40:54.672Z,14.77
2023-05-07T00:41:54.817Z,14.79
2023-05-07T00:42:54.731Z,14.75
2023-05-07T00:43:54.755Z,14.79
2023-05-07T00:44:54.781Z,14.82
2023-05-07T00:45:54.817Z,14.71
2023-05-07T00:46:54.842Z,14.90
2023-05-07T00:47:54.914Z,14.89
2023-05-07T00:48:54.898Z,14.77
2023-05-07T00:49:54.925Z,14.80
2023-05-07T00:50:54.954Z,14.83
2023-05-07T00:51:54.979Z,14.89
2023-05-07T00:52:55.018Z,14.83
2023-05-07T00:53:55.039Z,14.87
2023-05-07T00:54:55.071Z,14.93
2023-05-07T00:55:55.093Z,14.89
2023-05-07T00:56:55.122Z,14.86
2023-05-07T00:57:55.255Z,14.85
2023-05-07T00:58:55.215Z,14.89
2023-05-07T00:59:55.212Z,14.89
2023-05-07T01:00:55.284Z,14.90
2023-05-07T01:01:55.265Z,14.79
2023-05-07T01:02:55.343Z,14.82
2023-05-07T01:03:55.360Z,14.93
2023-05-07T01:04:55.354Z,14.89
2023-05-07T01:05:55.378Z,14.93
2023-05-07T01:06:55.414Z,14.89
2023-05-07T01:07:55.438Z,14.86
2023-05-07T01:08:55.468Z,14.82
2023-05-07T01:09:55.501Z,14.89
2023-05-07T01:10:55.528Z,14.89
2023-05-07T01:11:55.555Z,14.86
2023-05-07T01:12:55.630Z,14.94
2023-05-07T01:13:55.704Z,14.89
2023-05-07T01:14:55.641Z,14.87
2023-05-07T01:15:55.675Z,14.86
2023-05-07T01:16:55.715Z,14.90
2023-05-07T01:17:55.795Z,14.93
2023-05-07T01:18:55.756Z,14.79
2023-05-07T01:19:55.791Z,14.86
2023-05-07T01:20:55.820Z,14.79
2023-05-07T01:21:55.837Z,14.87
2023-05-07T01:22:55.869Z,14.90
2023-05-07T01:23:55.910Z,14.85
2023-05-07T01:24:55.928Z,14.87
2023-05-07T01:25:55.960Z,14.86
2023-05-07T01:26:55.995Z,14.80
2023-05-07T01:27:56.017Z,14.82
2023-05-07T01:28:56.039Z,14.77
2023-05-07T01:29:56.156Z,14.77
2023-05-07T01:31:56.188Z,14.69
2023-05-07T01:32:56.195Z,14.77
2023-05-07T01:33:56.190Z,14.74
2023-05-07T01:34:56.211Z,14.80
2023-05-07T01:35:56.240Z,14.74
2023-05-07T01:36:56.278Z,14.71
2023-05-07T01:37:56.308Z,14.80
2023-05-07T01:38:56.326Z,14.79
2023-05-07T01:39:56.358Z,14.77
2023-05-07T01:40:56.581Z,14.82
2023-05-07T01:41:56.425Z,14.89
2023-05-07T01:42:56.435Z,14.87
2023-05-07T01:43:56.483Z,14.83
2023-05-07T01:44:56.494Z,14.82
2023-05-07T01:45:56.657Z,14.80
2023-05-07T01:46:56.560Z,14.86
2023-05-07T01:47:56.682Z,14.93
2023-05-07T01:48:56.620Z,14.86
2023-05-07T01:49:56.654Z,14.83
2023-05-07T01:50:56.662Z,14.87
2023-05-07T01:51:56.696Z,14.86
2023-05-07T01:52:56.722Z,14.77
2023-05-07T01:53:56.750Z,14.77
2023-05-07T01:54:56.778Z,14.80
2023-05-07T01:55:56.823Z,14.80
2023-05-07T01:56:56.835Z,14.77
2023-05-07T01:57:56.863Z,14.80
2023-05-07T01:58:56.899Z,14.75
2023-05-07T01:59:56.923Z,14.75
2023-05-07T02:00:56.956Z,14.83
2023-05-07T02:01:57.347Z,14.80
2023-05-07T02:02:57.078Z,14.80
2023-05-07T02:03:57.171Z,14.79
2023-05-07T02:05:57.115Z,14.71
2023-05-07T02:06:57.122Z,14.75
2023-05-07T02:07:57.156Z,14.71
2023-05-07T02:08:57.182Z,14.70
2023-05-07T02:09:57.217Z,14.70
2023-05-07T02:10:57.244Z,14.70
2023-05-07T02:11:57.262Z,14.74
2023-05-07T02:12:57.305Z,14.71
2023-05-07T02:13:57.319Z,14.63
2023-05-07T02:14:57.348Z,14.64
2023-05-07T02:15:57.389Z,14.67
2023-05-07T02:16:57.469Z,14.57
2023-05-07T02:17:57.550Z,14.61
2023-05-07T02:18:57.465Z,14.53
2023-05-07T02:19:57.490Z,14.56
2023-05-07T02:20:57.519Z,14.51
2023-05-07T02:21:57.549Z,14.48
2023-05-07T02:22:57.580Z,14.49
2023-05-07T02:23:57.603Z,14.46
2023-05-07T02:24:57.634Z,14.44
2023-05-07T02:25:57.661Z,14.41
2023-05-07T02:26:57.693Z,14.46
2023-05-07T02:27:57.717Z,14.48
2023-05-07T02:28:57.755Z,14.31
2023-05-07T02:29:57.777Z,14.39
2023-05-07T02:30:57.857Z,14.34
2023-05-07T02:31:57.898Z,14.30
2023-05-07T02:32:57.887Z,14.27
2023-05-07T02:33:57.983Z,14.23
2023-05-07T02:34:57.918Z,14.19
2023-05-07T02:35:57.944Z,14.23
2023-05-07T02:36:57.973Z,14.20
2023-05-07T02:37:58.000Z,14.20
2023-05-07T02:38:58.040Z,14.26
2023-05-07T02:39:58.056Z,14.26
2023-05-07T02:40:58.239Z,14.13
2023-05-07T02:41:58.112Z,14.15
2023-05-07T02:42:58.142Z,14.13
2023-05-07T02:43:58.178Z,14.13
2023-05-07T02:44:58.201Z,14.16
2023-05-07T02:45:58.276Z,14.15
2023-05-07T02:46:58.254Z,14.16
2023-05-07T02:47:58.351Z,14.16
2023-05-07T02:48:58.311Z,14.21
2023-05-07T02:50:01.054Z,14.23
2023-05-07T02:50:58.381Z,14.09
2023-05-07T02:51:58.393Z,14.11
2023-05-07T02:52:58.421Z,14.13
2023-05-07T02:53:58.468Z,14.12
2023-05-07T02:54:58.489Z,14.12
2023-05-07T02:55:58.506Z,14.15
2023-05-07T02:56:58.535Z,14.11
2023-05-07T02:57:58.570Z,14.11
2023-05-07T02:58:58.592Z,14.06
2023-05-07T02:59:58.618Z,14.11
2023-05-07T03:00:58.729Z,14.24
2023-05-07T03:01:58.682Z,14.21
2023-05-07T03:02:58.751Z,14.15
2023-05-07T03:03:58.765Z,14.15
2023-05-07T03:04:58.766Z,14.16
2023-05-07T03:05:58.876Z,14.15
2023-05-07T03:06:58.826Z,14.15
2023-05-07T03:07:58.848Z,14.19
2023-05-07T03:08:58.876Z,14.05
2023-05-07T03:09:58.899Z,14.16
2023-05-07T03:10:58.929Z,14.16
2023-05-07T03:11:58.956Z,14.24
2023-05-07T03:12:59.044Z,14.19
2023-05-07T03:13:59.013Z,14.15
2023-05-07T03:14:59.060Z,14.13
2023-05-07T03:15:59.096Z,14.16
2023-05-07T03:17:59.178Z,14.05
2023-05-07T03:18:59.254Z,14.15
2023-05-07T03:20:59.494Z,14.13
2023-05-07T03:21:59.253Z,14.20
2023-05-07T03:22:59.258Z,14.12
2023-05-07T03:23:59.294Z,14.15
2023-05-07T03:24:59.315Z,14.21
2023-05-07T03:25:59.344Z,14.15
2023-05-07T03:26:59.376Z,14.13
2023-05-07T03:27:59.397Z,14.23
2023-05-07T03:28:59.438Z,14.11
2023-05-07T03:29:59.498Z,14.16
2023-05-07T03:30:59.505Z,14.20
2023-05-07T03:31:59.510Z,14.12
2023-05-07T03:32:59.594Z,14.13
2023-05-07T03:33:59.577Z,14.16
2023-05-07T03:34:59.599Z,14.13
2023-05-07T03:35:59.620Z,14.19
2023-05-07T03:36:59.653Z,14.16
2023-05-07T03:37:59.767Z,14.20
2023-05-07T03:38:59.706Z,14.16
2023-05-07T03:39:59.735Z,14.13
2023-05-07T03:40:59.760Z,14.11
2023-05-07T03:41:59.803Z,14.13
2023-05-07T03:42:59.823Z,14.06
2023-05-07T03:43:59.853Z,14.03
2023-05-07T03:44:59.878Z,14.03
2023-05-07T03:46:42.494Z,14.02
2023-05-07T03:47:42.523Z,14.05
2023-05-07T03:48:42.524Z,14.03
2023-05-07T03:49:42.534Z,14.03
2023-05-07T03:50:42.560Z,13.95
2023-05-07T03:51:42.588Z,13.94
2023-05-07T03:52:42.623Z,14.03
2023-05-07T03:53:42.745Z,13.90
2023-05-07T03:54:42.674Z,13.95
2023-05-07T03:55:42.704Z,13.93
2023-05-07T03:56:42.731Z,13.95
2023-05-07T03:57:42.756Z,13.91
2023-05-07T03:58:42.787Z,13.94
2023-05-07T03:59:42.817Z,13.88
2023-05-07T04:00:42.842Z,13.90
2023-05-07T04:01:42.992Z,13.99
2023-05-07T04:02:43.082Z,14.08
2023-05-07T04:03:43.011Z,13.97
2023-05-07T04:04:42.978Z,14.03
2023-05-07T04:05:43.006Z,14.03
2023-05-07T04:07:50.861Z,14.05
2023-05-07T04:08:50.989Z,14.05
2023-05-07T04:09:50.927Z,14.05
2023-05-07T04:10:50.948Z,14.02
2023-05-07T04:11:50.975Z,14.01
2023-05-07T04:12:51.005Z,14.03
2023-05-07T04:13:51.038Z,14.09
2023-05-07T04:14:51.052Z,14.05
2023-05-07T04:15:51.081Z,14.09
2023-05-07T04:16:51.132Z,14.12
2023-05-07T04:17:51.193Z,14.19
2023-05-07T04:18:51.169Z,14.09
2023-05-07T04:19:51.191Z,14.13
2023-05-07T04:20:51.221Z,14.19
2023-05-07T04:21:51.250Z,14.23
2023-05-07T04:22:51.278Z,14.24
2023-05-07T04:23:51.314Z,14.24
2023-05-07T04:24:51.429Z,14.28
2023-05-07T04:25:51.357Z,14.27
2023-05-07T04:26:51.391Z,14.34
2023-05-07T04:27:51.424Z,14.28
2023-05-07T04:28:51.447Z,14.31
2023-05-07T04:29:51.489Z,14.28
2023-05-07T04:30:51.504Z,14.39
2023-05-07T04:31:51.609Z,14.39
2023-05-07T04:32:51.619Z,14.41
2023-05-07T04:33:51.597Z,14.41
2023-05-07T04:34:51.621Z,14.48
2023-05-07T04:35:51.644Z,14.49
2023-05-07T04:36:51.679Z,14.53
2023-05-07T04:37:51.694Z,14.60
2023-05-07T04:38:51.731Z,14.59
2023-05-07T04:39:51.751Z,14.52
2023-05-07T04:40:52.398Z,14.61
2023-05-07T04:41:51.804Z,14.63
2023-05-07T04:42:51.835Z,14.66
2023-05-07T04:43:51.861Z,14.67
2023-05-07T04:44:51.890Z,14.66
2023-05-07T04:45:52.861Z,14.66
2023-05-07T04:46:51.950Z,14.75
2023-05-07T04:47:52.008Z,14.75
2023-05-07T04:48:52.002Z,14.75
2023-05-07T04:49:52.027Z,14.79
2023-05-07T04:50:52.067Z,14.90
2023-05-07T04:51:52.083Z,14.79
2023-05-07T04:52:52.136Z,14.90
2023-05-07T04:53:52.138Z,14.85
2023-05-07T04:54:52.168Z,15.00
2023-05-07T04:55:52.194Z,15.02
2023-05-07T04:56:52.246Z,14.95
2023-05-07T04:57:52.254Z,15.08
2023-05-07T04:58:52.296Z,15.08
2023-05-07T04:59:52.315Z,15.08
2023-05-07T05:00:52.351Z,15.18
2023-05-07T05:01:52.495Z,15.10
2023-05-07T05:02:52.439Z,15.20
2023-05-07T05:03:52.498Z,15.27
2023-05-07T05:04:52.471Z,15.34
2023-05-07T05:05:52.497Z,15.33
2023-05-07T05:06:52.512Z,15.26
2023-05-07T05:07:52.555Z,15.31
2023-05-07T05:08:52.590Z,15.35
2023-05-07T05:09:52.597Z,15.33
2023-05-07T05:10:52.633Z,15.25
2023-05-07T05:11:52.664Z,15.44
2023-05-07T05:12:52.835Z,15.49
2023-05-07T05:13:52.720Z,15.44
2023-05-07T05:14:52.760Z,15.52
2023-05-07T05:15:52.785Z,15.47
2023-05-07T05:16:52.803Z,15.44
2023-05-07T05:17:52.902Z,15.55
2023-05-07T05:18:52.896Z,15.58
2023-05-07T05:19:52.889Z,15.65
2023-05-07T05:20:52.921Z,15.73
2023-05-07T05:21:52.945Z,15.77
2023-05-07T05:22:52.992Z,15.81
2023-05-07T05:23:53.012Z,15.89
2023-05-07T05:24:53.035Z,15.88
2023-05-07T05:25:53.059Z,15.92
2023-05-07T05:26:53.100Z,15.96
2023-05-07T05:27:53.119Z,15.99
2023-05-07T05:28:53.240Z,16.00
2023-05-07T05:29:53.175Z,15.99
2023-05-07T05:30:53.216Z,15.96
2023-05-07T05:31:53.315Z,15.98
2023-05-07T05:32:53.312Z,16.13
2023-05-07T05:33:53.292Z,16.08
2023-05-07T05:34:53.325Z,16.16
2023-05-07T05:35:53.351Z,16.16
2023-05-07T05:36:53.385Z,16.32
2023-05-07T05:37:53.425Z,16.22
2023-05-07T05:38:53.443Z,16.37
2023-05-07T05:39:53.470Z,16.29
2023-05-07T05:40:55.423Z,16.27
2023-05-07T05:41:53.524Z,16.30
2023-05-07T05:42:53.558Z,16.42
2023-05-07T05:43:53.594Z,16.47
2023-05-07T05:44:53.723Z,16.57
2023-05-07T05:45:53.655Z,16.66
2023-05-07T05:46:53.779Z,16.65
2023-05-07T05:47:53.730Z,16.73
2023-05-07T05:48:53.734Z,16.74
2023-05-07T05:49:53.760Z,16.74
2023-05-07T05:50:53.792Z,16.70
2023-05-07T05:51:53.819Z,16.76
2023-05-07T05:52:53.857Z,16.80
2023-05-07T05:53:53.882Z,16.77
2023-05-07T05:54:53.906Z,16.70
2023-05-07T05:55:53.958Z,16.63
2023-05-07T05:56:53.973Z,16.69
2023-05-07T05:57:53.996Z,16.63
2023-05-07T05:58:54.091Z,16.67
2023-05-07T05:59:55.471Z,16.65
2023-05-07T06:00:54.184Z,16.69
2023-05-07T06:01:54.175Z,16.67
2023-05-07T06:02:54.193Z,16.70
2023-05-07T06:03:54.175Z,16.85
2023-05-07T06:04:54.232Z,16.85
2023-05-07T06:05:54.229Z,16.97
2023-05-07T06:06:54.261Z,16.95
2023-05-07T06:07:54.286Z,16.99
2023-05-07T06:08:54.321Z,16.85
2023-05-07T06:09:54.346Z,16.94
2023-05-07T06:10:54.386Z,16.91
2023-05-07T06:11:54.412Z,16.95
2023-05-07T06:12:54.451Z,16.92
2023-05-07T06:13:54.468Z,16.99
2023-05-07T06:14:54.498Z,16.99
2023-05-07T06:15:54.523Z,16.91
2023-05-07T06:16:54.671Z,17.12
2023-05-07T06:17:54.627Z,17.10
2023-05-07T06:18:54.612Z,17.24
2023-05-07T06:19:54.642Z,17.15
2023-05-07T06:20:54.670Z,17.22
2023-05-07T06:21:54.700Z,17.32
2023-05-07T06:22:54.745Z,17.43
2023-05-07T06:23:54.761Z,17.43
2023-05-07T06:24:54.799Z,17.52
2023-05-07T06:25:54.848Z,17.46
2023-05-07T06:26:54.872Z,17.38
2023-05-07T06:27:54.880Z,17.47
2023-05-07T06:28:54.912Z,17.47
2023-05-07T06:29:54.937Z,17.45
2023-05-07T06:30:54.971Z,17.46
2023-05-07T06:31:55.123Z,17.55
2023-05-07T06:32:55.241Z,17.65
2023-05-07T06:33:55.320Z,17.77
2023-05-07T06:34:55.087Z,17.79
2023-05-07T06:35:55.118Z,17.94
2023-05-07T06:36:55.151Z,18.05
2023-05-07T06:37:55.178Z,18.08
2023-05-07T06:38:55.209Z,18.10
2023-05-07T06:39:55.244Z,18.21
2023-05-07T06:40:55.278Z,18.19
2023-05-07T06:41:55.301Z,18.24
2023-05-07T06:42:55.334Z,18.39
2023-05-07T06:43:55.357Z,18.26
2023-05-07T06:44:55.390Z,18.54
2023-05-07T06:45:55.421Z,18.54
2023-05-07T06:46:56.258Z,18.50
2023-05-07T06:48:49.164Z,18.79
2023-05-07T06:49:49.168Z,18.89
2023-05-07T06:50:49.202Z,18.87
2023-05-07T06:51:49.225Z,18.94
2023-05-07T06:52:49.253Z,18.99
2023-05-07T06:53:49.281Z,19.00
2023-05-07T06:54:49.310Z,19.13
2023-05-07T06:55:49.347Z,19.15
2023-05-07T06:56:49.380Z,19.10
2023-05-07T06:57:49.412Z,19.17
2023-05-07T06:58:49.431Z,19.34
2023-05-07T06:59:49.467Z,19.35
2023-05-07T07:00:49.497Z,19.53
2023-05-07T07:01:49.582Z,19.57
2023-05-07T07:02:52.255Z,19.80
2023-05-07T07:03:49.587Z,20.18
2023-05-07T07:04:49.680Z,20.38
2023-05-07T07:05:49.677Z,20.41
2023-05-07T07:06:49.683Z,20.72
2023-05-07T07:07:49.724Z,20.82
2023-05-07T07:08:49.751Z,20.98
2023-05-07T07:09:49.771Z,21.01
2023-05-07T07:10:49.821Z,21.01
2023-05-07T07:11:49.835Z,20.94
2023-05-07T07:12:50.303Z,21.03
2023-05-07T07:13:49.894Z,21.12
2023-05-07T07:14:49.943Z,20.88
2023-05-07T07:15:49.989Z,20.93
2023-05-07T07:16:49.987Z,20.86
2023-05-07T07:17:50.106Z,20.91
2023-05-07T07:18:50.050Z,21.09
2023-05-07T07:19:50.103Z,21.06
2023-05-07T07:20:50.207Z,21.08
2023-05-07T07:21:50.166Z,21.03
2023-05-07T07:22:50.184Z,20.96
2023-05-07T07:23:50.214Z,20.74
2023-05-07T07:24:50.245Z,20.64
2023-05-07T07:25:50.280Z,20.66
2023-05-07T07:26:50.336Z,20.81
2023-05-07T07:27:50.355Z,20.82
2023-05-07T07:28:50.371Z,20.85
2023-05-07T07:29:50.412Z,20.86
2023-05-07T07:30:50.439Z,20.96
2023-05-07T07:31:50.563Z,21.09
2023-05-07T07:32:50.531Z,21.13
2023-05-07T07:33:52.326Z,21.15
2023-05-07T07:34:50.567Z,21.19
2023-05-07T07:35:50.600Z,21.15
2023-05-07T07:36:50.831Z,21.16
2023-05-07T07:37:50.666Z,21.25
2023-05-07T07:38:50.703Z,21.66
2023-05-07T07:39:50.730Z,22.24
2023-05-07T07:40:50.767Z,22.30
2023-05-07T07:41:50.798Z,22.88
2023-05-07T07:42:50.835Z,23.64
2023-05-07T07:43:50.863Z,23.85
2023-05-07T07:44:50.898Z,23.77
2023-05-07T07:45:50.936Z,23.79
2023-05-07T07:46:51.004Z,23.89
2023-05-07T07:47:51.048Z,24.12
2023-05-07T07:49:34.594Z,24.87
2023-05-07T07:50:44.191Z,24.97
2023-05-07T07:51:33.646Z,24.90
2023-05-07T07:52:33.773Z,25.33
2023-05-07T07:53:33.716Z,25.44
2023-05-07T07:54:33.767Z,25.74
2023-05-07T07:55:33.795Z,25.99
2023-05-07T07:56:33.838Z,26.17
2023-05-07T07:57:33.871Z,26.44
2023-05-07T07:59:33.933Z,26.87
2023-05-07T08:00:33.963Z,26.82
2023-05-07T08:01:34.204Z,26.86
2023-05-07T08:02:34.678Z,26.90
2023-05-07T08:04:31.791Z,27.15
2023-05-07T08:05:31.705Z,27.27
2023-05-07T08:06:31.740Z,27.31
2023-05-07T08:08:14.355Z,27.16
2023-05-07T08:09:14.375Z,26.81
2023-05-07T08:10:14.413Z,26.60
2023-05-07T08:11:14.457Z,26.17
2023-05-07T08:12:14.489Z,25.00
2023-05-07T08:13:14.563Z,24.48
2023-05-07T08:14:14.775Z,24.22
2023-05-07T08:15:14.624Z,24.03
2023-05-07T08:17:15.008Z,23.29
2023-05-07T08:22:14.889Z,22.67
2023-05-07T08:24:15.034Z,22.66
2023-05-07T08:25:14.980Z,22.75
2023-05-07T08:26:15.014Z,22.91
2023-05-07T08:27:15.158Z,23.03
2023-05-07T08:29:15.119Z,23.00
2023-05-07T08:30:15.150Z,23.04
2023-05-07T08:31:16.284Z,23.10
2023-05-07T08:32:15.215Z,22.97
2023-05-07T08:34:15.280Z,23.06
2023-05-07T08:35:15.337Z,23.01
2023-05-07T08:36:15.349Z,22.94
2023-05-07T08:37:15.384Z,23.03
2023-05-07T08:38:15.425Z,23.03
2023-05-07T08:39:15.453Z,23.00
2023-05-07T08:41:18.188Z,22.64
2023-05-07T08:42:18.142Z,22.61
2023-05-07T08:43:18.168Z,22.60
2023-05-07T08:44:18.197Z,22.57
2023-05-07T08:45:20.866Z,22.59
2023-05-07T08:46:18.285Z,22.64
2023-05-07T08:47:18.302Z,22.57
2023-05-07T08:48:18.344Z,22.51
2023-05-07T08:49:18.360Z,22.60
2023-05-07T08:50:18.393Z,22.66
2023-05-07T08:52:00.980Z,22.92
2023-05-07T08:53:01.053Z,23.37
2023-05-07T08:54:01.049Z,23.40
2023-05-07T08:55:01.100Z,23.48
2023-05-07T08:56:01.139Z,23.63
2023-05-07T08:57:01.173Z,23.71
2023-05-07T08:58:01.188Z,23.66
2023-05-07T08:59:01.229Z,23.45
2023-05-07T09:00:01.257Z,23.34
2023-05-07T09:01:01.278Z,23.32
2023-05-07T09:02:01.429Z,23.19
2023-05-07T09:03:01.408Z,23.72
2023-05-07T09:05:01.624Z,24.07
2023-05-07T09:06:01.448Z,24.46
2023-05-07T09:07:01.711Z,25.09
2023-05-07T09:08:01.530Z,25.09
2023-05-07T09:09:01.581Z,25.02
2023-05-07T09:10:01.909Z,24.77
2023-05-07T09:11:01.655Z,24.39
2023-05-07T09:12:01.667Z,24.56
2023-05-07T09:14:29.442Z,25.34
2023-05-07T09:15:29.407Z,25.48
2023-05-07T09:16:29.470Z,25.70
2023-05-07T09:17:29.505Z,25.71
2023-05-07T09:18:29.513Z,25.85
2023-05-07T09:19:29.519Z,25.69
2023-05-07T09:20:29.555Z,25.93
2023-05-07T09:21:30.317Z,25.97
2023-05-07T09:22:29.634Z,25.62
2023-05-07T09:23:29.663Z,25.09
2023-05-07T09:24:29.699Z,25.14
2023-05-07T09:25:29.740Z,25.02
2023-05-07T09:27:12.339Z,25.05
2023-05-07T09:28:12.359Z,24.90
2023-05-07T09:29:12.405Z,24.93
2023-05-07T09:30:12.525Z,24.61
2023-05-07T09:31:12.554Z,24.74
2023-05-07T09:32:12.561Z,24.77
2023-05-07T09:33:12.532Z,24.78
2023-05-07T09:34:12.571Z,24.74
2023-05-07T09:35:12.849Z,25.09
2023-05-07T09:36:12.643Z,25.51
2023-05-07T09:37:12.675Z,26.16
2023-05-07T09:38:12.708Z,26.56
2023-05-07T09:39:12.754Z,26.82
2023-05-07T09:40:12.778Z,26.96
2023-05-07T09:41:12.810Z,27.04
2023-05-07T09:42:12.849Z,27.18
2023-05-07T09:43:12.947Z,26.91
2023-05-07T09:44:12.919Z,26.74
2023-05-07T09:45:13.159Z,26.71
2023-05-07T09:46:13.189Z,27.04
2023-05-07T09:47:13.030Z,27.48
2023-05-07T09:48:13.061Z,27.64
2023-05-07T09:49:13.096Z,27.80
2023-05-07T09:50:13.135Z,27.89
2023-05-07T09:51:15.784Z,27.86
2023-05-07T09:52:13.402Z,27.74
2023-05-07T09:53:13.238Z,27.57
2023-05-07T09:54:15.888Z,27.74
2023-05-07T09:55:13.533Z,28.11
2023-05-07T09:56:13.355Z,28.46
2023-05-07T09:57:13.374Z,28.61
2023-05-07T09:58:16.051Z,28.54
2023-05-07T09:59:13.454Z,28.36
2023-05-07T10:00:13.487Z,28.11
2023-05-07T10:01:13.690Z,28.26
2023-05-07T10:02:13.587Z,28.16
2023-05-07T10:03:13.680Z,28.12
2023-05-07T10:04:13.659Z,27.94
2023-05-07T10:05:13.808Z,27.36
2023-05-07T10:06:13.706Z,27.55
2023-05-07T10:07:13.738Z,27.69
2023-05-07T10:08:13.780Z,27.93
2023-05-07T10:09:13.815Z,27.98
2023-05-07T10:10:13.853Z,28.02
2023-05-07T10:11:13.888Z,27.72
2023-05-07T10:12:13.927Z,27.33
2023-05-07T10:13:14.041Z,26.56
2023-05-07T10:14:14.002Z,26.44
2023-05-07T10:15:14.186Z,26.57
2023-05-07T10:16:14.071Z,26.64
2023-05-07T10:17:14.128Z,26.67
2023-05-07T10:18:14.359Z,26.78
2023-05-07T10:19:14.183Z,26.79
2023-05-07T10:20:14.215Z,26.68
2023-05-07T10:21:14.259Z,26.63
2023-05-07T10:22:14.293Z,26.35
2023-05-07T10:23:14.329Z,26.09
2023-05-07T10:24:14.361Z,25.94
2023-05-07T10:25:14.571Z,25.99
2023-05-07T10:26:14.435Z,25.56
2023-05-07T10:27:14.470Z,25.49
2023-05-07T10:28:14.506Z,25.54
2023-05-07T10:29:14.541Z,25.44
2023-05-07T10:30:14.636Z,25.48
2023-05-07T10:31:14.637Z,25.74
2023-05-07T10:32:14.655Z,25.99
2023-05-07T10:33:14.747Z,26.11
2023-05-07T10:34:14.761Z,25.76
2023-05-07T10:35:14.754Z,25.67
2023-05-07T10:36:14.791Z,25.76
2023-05-07T10:37:14.824Z,26.16
2023-05-07T10:38:14.866Z,26.64
2023-05-07T10:39:14.895Z,27.16
2023-05-07T10:40:15.025Z,27.48
2023-05-07T10:41:14.967Z,27.81
2023-05-07T10:42:15.008Z,28.01
2023-05-07T10:43:15.049Z,28.38
2023-05-07T10:44:15.073Z,28.68
2023-05-07T10:45:15.135Z,28.65
2023-05-07T10:46:15.188Z,28.53
2023-05-07T10:47:15.176Z,28.36
2023-05-07T10:49:15.252Z,28.57
2023-05-07T10:50:15.377Z,28.64
2023-05-07T10:51:15.322Z,28.70
2023-05-07T10:52:15.358Z,27.93
2023-05-07T10:53:15.392Z,27.74
2023-05-07T10:54:15.429Z,27.96
2023-05-07T10:55:15.462Z,27.94
2023-05-07T10:56:15.498Z,27.51
2023-05-07T10:57:15.533Z,27.36
2023-05-07T10:58:30.248Z,27.24
2023-05-07T10:59:15.602Z,27.15
2023-05-07T11:00:18.348Z,26.82
2023-05-07T11:01:15.755Z,26.71
2023-05-07T11:02:15.809Z,26.61
2023-05-07T11:03:15.744Z,26.74
2023-05-07T11:04:15.860Z,26.90
2023-05-07T11:05:15.873Z,26.87
2023-05-07T11:06:16.051Z,27.06
2023-05-07T11:07:15.882Z,27.18
2023-05-07T11:08:15.917Z,27.42
2023-05-07T11:09:15.952Z,27.19
2023-05-07T11:10:16.014Z,27.13
2023-05-07T11:11:16.023Z,27.15
2023-05-07T11:12:16.064Z,27.08
2023-05-07T11:13:16.142Z,26.96
2023-05-07T11:14:16.162Z,26.76
2023-05-07T11:15:16.162Z,26.75
2023-05-07T11:16:16.250Z,26.82
2023-05-07T11:17:16.238Z,26.81
2023-05-07T11:18:16.278Z,26.96
2023-05-07T11:19:16.303Z,27.19
2023-05-07T11:20:16.341Z,27.26
2023-05-07T11:21:16.372Z,27.45
2023-05-07T11:22:16.427Z,27.21
2023-05-07T11:23:16.440Z,27.16
2023-05-07T11:24:16.489Z,27.16
2023-05-07T11:25:16.522Z,27.21
2023-05-07T11:26:16.553Z,27.21
2023-05-07T11:27:16.587Z,27.04
2023-05-07T11:28:16.617Z,27.16
2023-05-07T11:29:17.820Z,27.36
2023-05-07T11:30:16.686Z,27.41
2023-05-07T11:31:16.752Z,27.45
2023-05-07T11:32:16.759Z,27.37
2023-05-07T11:33:16.813Z,27.18
2023-05-07T11:34:16.829Z,27.13
2023-05-07T11:35:16.866Z,26.97
2023-05-07T11:36:16.895Z,26.27
2023-05-07T11:37:16.931Z,26.17
2023-05-07T11:38:17.070Z,26.03
2023-05-07T11:39:17.000Z,25.99
2023-05-07T11:40:17.050Z,26.15
2023-05-07T11:41:17.090Z,26.01
2023-05-07T11:42:17.105Z,25.97
2023-05-07T11:43:17.178Z,25.81
2023-05-07T11:44:17.183Z,25.82
2023-05-07T11:45:17.208Z,25.93
2023-05-07T11:46:17.270Z,25.74
2023-05-07T11:47:17.279Z,25.69
2023-05-07T11:48:17.334Z,25.91
2023-05-07T11:49:17.347Z,25.97
2023-05-07T11:50:17.392Z,25.97
2023-05-07T11:51:17.415Z,25.94
2023-05-07T11:52:17.453Z,25.85
2023-05-07T11:53:17.488Z,25.75
2023-05-07T11:54:17.540Z,25.57
2023-05-07T11:55:17.552Z,25.38
2023-05-07T11:56:17.595Z,25.38
2023-05-07T11:57:17.637Z,25.32
2023-05-07T11:58:17.665Z,25.33
2023-05-07T11:59:17.706Z,25.26
2023-05-07T12:00:17.729Z,25.09
2023-05-07T12:01:17.757Z,25.15
2023-05-07T12:02:17.862Z,25.22
2023-05-07T12:03:18.218Z,25.20
2023-05-07T12:04:17.936Z,25.20
2023-05-07T12:05:17.903Z,25.19
2023-05-07T12:06:17.940Z,25.24
2023-05-07T12:07:17.975Z,25.22
2023-05-07T12:08:17.997Z,25.22
2023-05-07T12:14:22.777Z,25.08
2023-05-07T12:15:22.780Z,25.11
2023-05-07T12:16:22.862Z,24.87
2023-05-07T12:17:22.923Z,24.63
2023-05-07T12:18:22.891Z,24.64
2023-05-07T12:19:22.919Z,24.63
2023-05-07T12:20:22.946Z,24.78
2023-05-07T12:21:22.990Z,24.89
2023-05-07T12:22:23.019Z,24.86
2023-05-07T12:23:23.065Z,24.89
2023-05-07T12:25:23.128Z,24.90
2023-05-07T12:26:23.468Z,24.93
2023-05-07T12:27:23.903Z,24.97
2023-05-07T12:28:23.212Z,25.01
2023-05-07T12:29:25.885Z,24.90
2023-05-07T12:32:49.231Z,24.90
2023-05-07T12:33:49.200Z,24.92
2023-05-07T12:34:49.234Z,24.90
2023-05-07T12:35:49.271Z,25.02
2023-05-07T12:36:49.301Z,24.93
2023-05-07T12:37:49.336Z,24.90
2023-05-07T12:38:49.364Z,24.92
2023-05-07T12:39:49.441Z,24.94
2023-05-07T12:40:49.429Z,24.85
2023-05-07T12:41:49.467Z,24.75
2023-05-07T12:42:49.501Z,24.74
2023-05-07T12:43:49.531Z,24.71
2023-05-07T12:44:49.582Z,24.59
2023-05-07T12:45:49.600Z,24.58
2023-05-07T12:46:49.789Z,24.51
2023-05-07T12:47:49.703Z,24.39
2023-05-07T12:48:49.695Z,24.30
2023-05-07T12:49:49.734Z,24.32
2023-05-07T12:50:49.772Z,24.36
2023-05-07T12:51:50.604Z,24.33
2023-05-07T12:52:49.830Z,24.26
2023-05-07T12:53:49.859Z,24.24
2023-05-07T12:54:49.913Z,24.19
2023-05-07T12:55:49.931Z,24.17
2023-05-07T12:56:49.972Z,24.00
2023-05-07T12:57:50.003Z,24.04
2023-05-07T12:58:50.046Z,24.17
2023-05-07T12:59:50.059Z,24.19
2023-05-07T13:00:50.114Z,24.27
2023-05-07T13:01:50.165Z,24.34
2023-05-07T13:02:50.248Z,24.39
2023-05-07T13:03:50.329Z,24.44
2023-05-07T13:04:50.221Z,24.52
2023-05-07T13:05:50.258Z,24.56
2023-05-07T13:06:50.286Z,24.66
2023-05-07T13:07:50.325Z,24.61
2023-05-07T13:08:50.357Z,24.55
2023-05-07T13:09:50.384Z,24.54
2023-05-07T13:10:50.414Z,24.58
2023-05-07T13:11:50.449Z,24.55
2023-05-07T13:12:50.487Z,24.64
2023-05-07T13:13:50.518Z,24.66
2023-05-07T13:14:50.549Z,24.74
2023-05-07T13:15:50.601Z,24.70
2023-05-07T13:16:50.654Z,24.71
2023-05-07T13:17:50.740Z,24.67
2023-05-07T13:18:50.698Z,24.58
2023-05-07T13:19:50.714Z,24.69
2023-05-07T13:20:50.801Z,24.71
2023-05-07T13:21:50.801Z,24.56
2023-05-07T13:22:50.803Z,24.55
2023-05-07T13:23:50.841Z,24.45
2023-05-07T13:24:50.891Z,24.33
2023-05-07T13:25:50.927Z,24.48
2023-05-07T13:26:50.938Z,24.32
2023-05-07T13:28:02.695Z,24.52
2023-05-07T13:28:51.000Z,24.36
2023-05-07T13:29:51.038Z,24.32
2023-05-07T13:30:51.081Z,24.33
2023-05-07T13:31:51.110Z,24.22
2023-05-07T13:32:51.172Z,24.19
2023-05-07T13:33:51.181Z,24.14